Clearfield, Iowa
Current Conditions -  °F | °C
As of 9:35 AM on Friday 24 Oct 2014 (Local Time) from KCSQ Reporting Station
Moderate Fog Moderate Fog  
Wind Chill: 15°   Ceiling: 300
Heat Index: 15°   Visibility: 0.5mi
Dew Point: 15°   Wind: 14mph
Humidity: 100%   Direction: 200°SSW
Pressure: 29.98"   Gusts: NA
Location:  40.8°N, 94.48°W
Report Text: KCSQ 241435Z AUTO 20012KT 1/2SM FG OVC003 15/15 A2998 RMK AO2
Loading
Personal Weather Stations






























Interactive Weather Map
Tropical Storm Tracking
New forecast layout! Learn more

10-Day Weather Forecast

Advertisements
Track Severe Weather on mobile